Time;durP1;ratioP1;P1;durP2;ratioP2;P2;SDS_P1;SDS_P2;PMS_P1;PMS_P2;Temp;Humidity;BMP_temperature;BMP_pressure;BME280_temperature;BME280_humidity;BME280_pressure;Samples;Min_cycle;Max_cycle;Signal;HPM_P1;HPM_P2
2022/04/10 00:01:39;;;;;;;5.80;1.60;;;;;;;4.42;100.00;100460.47;5180763;28;20120;-77
2022/04/10 00:04:09;;;;;;;5.25;1.63;;;;;;;4.45;100.00;100457.84;5169677;28;20033;-76
2022/04/10 00:06:40;;;;;;;5.22;1.60;;;;;;;4.53;100.00;100453.44;5177361;28;20036;-77
2022/04/10 00:09:13;;;;;;;8.63;2.00;;;;;;;4.45;100.00;100445.75;5181060;28;20463;-77
2022/04/10 00:11:43;;;;;;;5.43;1.55;;;;;;;4.43;100.00;100460.44;5180809;28;20076;-77
2022/04/10 00:14:14;;;;;;;5.40;1.50;;;;;;;4.49;100.00;100457.78;5173540;28;20037;-77
2022/04/10 00:16:44;;;;;;;5.07;1.40;;;;;;;4.51;100.00;100455.19;5177331;28;20539;-77
2022/04/10 00:19:15;;;;;;;10.15;1.80;;;;;;;4.49;100.00;100455.19;5178247;28;20213;-77
2022/04/10 00:21:46;;;;;;;13.27;2.28;;;;;;;4.51;100.00;100469.00;5179708;28;20479;-77
2022/04/10 00:24:17;;;;;;;6.55;1.90;;;;;;;4.41;100.00;100461.34;5152019;28;20044;-77
2022/04/10 00:26:47;;;;;;;6.20;1.65;;;;;;;4.45;100.00;100465.63;5172529;28;20025;-77
2022/04/10 00:29:17;;;;;;;6.68;2.03;;;;;;;4.55;100.00;100468.06;5177117;28;20053;-77
2022/04/10 00:31:48;;;;;;;6.20;2.00;;;;;;;4.51;100.00;100463.81;5178491;28;20076;-77
2022/04/10 00:34:18;;;;;;;5.05;2.20;;;;;;;4.51;100.00;100468.13;5168131;28;20029;-77
2022/04/10 00:36:49;;;;;;;11.32;2.47;;;;;;;4.53;100.00;100464.66;5177692;28;20025;-77
2022/04/10 00:39:19;;;;;;;7.75;2.20;;;;;;;4.54;100.00;100461.19;5180435;28;20037;-77
2022/04/10 00:41:49;;;;;;;5.18;1.67;;;;;;;4.57;100.00;100471.47;5180130;28;20543;-77
2022/04/10 00:44:20;;;;;;;8.25;1.92;;;;;;;4.60;100.00;100468.00;5174682;28;20376;-77
2022/04/10 00:46:50;;;;;;;6.25;2.03;;;;;;;4.58;100.00;100469.72;5176725;28;20028;-77
2022/04/10 00:49:21;;;;;;;10.80;1.90;;;;;;;4.44;100.00;100476.84;5180764;28;20636;-77
2022/04/10 00:51:53;;;;;;;9.05;2.30;;;;;;;4.48;100.00;100481.09;5179804;28;20539;-77
2022/04/10 00:54:25;;;;;;;8.85;2.67;;;;;;;4.51;100.00;100484.50;5180348;28;20129;-77
2022/04/10 00:56:56;;;;;;;8.88;2.70;;;;;;;4.48;100.00;100478.50;5179807;28;20036;-77
2022/04/10 00:59:28;;;;;;;11.60;3.03;;;;;;;4.50;100.00;100475.00;5180192;28;20092;-77
2022/04/10 01:01:58;;;;;;;6.93;2.20;;;;;;;4.51;100.00;100479.34;5179824;28;20022;-77
2022/04/10 01:04:28;;;;;;;11.98;2.63;;;;;;;4.42;100.00;100488.91;5167482;28;20030;-77
2022/04/10 01:06:59;;;;;;;10.35;2.50;;;;;;;4.44;100.00;100484.59;5176957;28;20026;-77
2022/04/10 01:09:31;;;;;;;8.38;2.45;;;;;;;4.45;100.00;100487.16;5180177;28;20088;-77
2022/04/10 01:12:02;;;;;;;8.00;2.25;;;;;;;4.45;100.00;100479.41;5179806;28;20422;-77
2022/04/10 01:14:33;;;;;;;7.10;2.05;;;;;;;4.50;100.00;100487.94;5171837;28;20109;-77
2022/04/10 01:17:06;;;;;;;9.23;2.63;;;;;;;4.49;100.00;100491.41;5176464;28;20084;-78
2022/04/10 01:19:38;;;;;;;8.43;2.30;;;;;;;4.41;100.00;100501.00;5180391;28;20028;-77
2022/04/10 01:22:32;;;;;;;7.07;2.60;;;;;;;4.45;100.00;100494.91;5161079;28;20515;-77
2022/04/10 01:25:05;;;;;;;9.95;2.65;;;;;;;4.46;100.00;100504.38;5176247;28;20034;-78
2022/04/10 01:27:38;;;;;;;7.00;2.42;;;;;;;4.40;100.00;100495.84;5180429;28;20033;-77
2022/04/10 01:30:11;;;;;;;12.80;3.67;;;;;;;4.39;100.00;100509.66;5135587;28;20619;-77
2022/04/10 01:32:42;;;;;;;8.05;2.80;;;;;;;4.39;100.00;100512.25;5133797;28;20761;-77
2022/04/10 01:35:12;;;;;;;11.95;2.92;;;;;;;4.37;100.00;100507.09;5153645;28;20129;-76
2022/04/10 01:37:44;;;;;;;10.02;2.83;;;;;;;4.38;100.00;100510.53;5171713;28;20077;-77
2022/04/10 01:40:14;;;;;;;6.28;2.40;;;;;;;4.45;100.00;100510.44;5172561;28;20026;-76
2022/04/10 01:42:44;;;;;;;6.65;2.30;;;;;;;4.43;100.00;100513.94;5170181;28;20521;-76
2022/04/10 01:45:15;;;;;;;7.65;2.28;;;;;;;4.30;100.00;100510.63;5162830;28;20031;-77
2022/04/10 01:47:50;;;;;;;9.18;2.20;;;;;;;4.32;100.00;100519.22;5165795;28;20495;-76
2022/04/10 01:50:21;;;;;;;8.18;2.40;;;;;;;4.41;100.00;100520.84;5163502;28;20030;-76
2022/04/10 01:52:51;;;;;;;8.35;2.60;;;;;;;4.28;100.00;100525.28;5165592;28;20399;-77
2022/04/10 01:55:21;;;;;;;6.38;2.38;;;;;;;4.26;100.00;100524.47;5164258;28;20030;-77
2022/04/10 01:57:51;;;;;;;10.98;5.22;;;;;;;4.27;100.00;100526.16;5163866;28;20022;-77
2022/04/10 02:00:22;;;;;;;15.25;2.83;;;;;;;4.30;100.00;100520.13;5164432;28;20104;-78
2022/04/10 02:02:52;;;;;;;9.80;2.08;;;;;;;4.35;100.00;100529.53;5164958;28;20027;-76
2022/04/10 02:05:22;;;;;;;6.68;2.22;;;;;;;4.31;100.00;100521.84;5153856;28;20088;-77
2022/04/10 02:07:52;;;;;;;10.55;3.72;;;;;;;4.13;100.00;100522.03;5172183;28;20030;-77
2022/04/10 02:10:23;;;;;;;7.30;2.22;;;;;;;4.20;100.00;100518.50;5170700;28;20037;-77
2022/04/10 02:12:53;;;;;;;7.32;2.15;;;;;;;4.26;100.00;100511.53;5171092;28;20026;-78
2022/04/10 02:15:23;;;;;;;10.25;2.13;;;;;;;4.18;100.00;100515.06;5170466;28;20105;-78
2022/04/10 02:17:53;;;;;;;11.55;3.03;;;;;;;4.23;100.00;100519.34;5171361;28;20030;-78
2022/04/10 02:20:24;;;;;;;13.27;2.20;;;;;;;4.08;100.00;100521.22;5180297;28;20236;-76
2022/04/10 02:22:54;;;;;;;8.85;2.25;;;;;;;4.19;100.00;100520.25;5181573;28;20532;-78
2022/04/10 02:25:24;;;;;;;5.20;1.83;;;;;;;4.23;100.00;100518.47;5173048;28;20424;-77
2022/04/10 02:27:55;;;;;;;11.75;2.60;;;;;;;4.23;100.00;100519.34;5179744;28;20511;-77
2022/04/10 02:30:26;;;;;;;15.60;3.33;;;;;;;4.09;100.00;100516.03;5182856;28;20519;-77
2022/04/10 02:32:56;;;;;;;9.38;2.25;;;;;;;4.10;100.00;100512.56;5182872;28;20029;-77
2022/04/10 02:35:26;;;;;;;11.47;2.67;;;;;;;4.09;100.00;100513.44;5183533;28;20028;-76
2022/04/10 02:37:57;;;;;;;8.32;2.28;;;;;;;4.11;100.00;100519.44;5183362;28;20300;-77
2022/04/10 02:40:27;;;;;;;12.00;2.65;;;;;;;4.08;100.00;100510.88;5183061;28;20025;-77
2022/04/10 02:42:57;;;;;;;12.00;2.42;;;;;;;4.06;100.00;100510.91;5180420;28;20139;-77
2022/04/10 02:45:28;;;;;;;10.82;2.80;;;;;;;4.04;100.00;100514.38;5173883;28;20034;-77
2022/04/10 02:47:58;;;;;;;7.43;2.30;;;;;;;4.02;100.00;100519.56;5182136;28;20022;-77
2022/04/10 02:50:28;;;;;;;7.93;2.00;;;;;;;4.23;100.00;100515.88;5175863;28;20140;-77
2022/04/10 02:52:59;;;;;;;9.93;2.13;;;;;;;4.07;100.00;100522.94;5176126;28;20033;-77
2022/04/10 02:55:29;;;;;;;8.80;2.33;;;;;;;4.16;100.00;100520.25;5182887;28;20034;-78
2022/04/10 02:58:00;;;;;;;7.45;2.58;;;;;;;4.19;100.00;100519.38;5182887;28;20511;-77
2022/04/10 03:00:30;;;;;;;11.73;2.50;;;;;;;4.22;100.00;100527.09;5182611;28;20103;-77
2022/04/10 03:03:00;;;;;;;9.38;2.50;;;;;;;4.17;100.00;100522.00;5181608;28;20022;-76
2022/04/10 03:05:30;;;;;;;12.32;3.28;;;;;;;4.18;100.00;100522.84;5182123;28;20030;-76
2022/04/10 03:08:01;;;;;;;9.57;2.58;;;;;;;4.20;100.00;100523.66;5181858;28;20530;-76
2022/04/10 03:10:31;;;;;;;9.30;2.33;;;;;;;4.16;100.00;100522.84;5181646;28;20495;-76
2022/04/10 03:13:01;;;;;;;13.73;2.65;;;;;;;4.22;100.00;100517.63;5178480;28;20076;-76
2022/04/10 03:15:32;;;;;;;10.93;2.47;;;;;;;4.24;100.00;100518.47;5173386;28;20033;-77
2022/04/10 03:18:02;;;;;;;5.75;2.20;;;;;;;4.21;100.00;100515.91;5181086;28;20627;-77
2022/04/10 03:20:32;;;;;;;8.75;2.05;;;;;;;4.14;100.00;100523.75;5175999;28;20030;-77
2022/04/10 03:23:08;;;;;;;7.45;2.33;;;;;;;4.17;100.00;100534.94;5174728;28;20056;-77
2022/04/10 03:25:38;;;;;;;13.10;2.45;;;;;;;4.19;100.00;100522.84;5181891;28;20034;-76
2022/04/10 03:28:08;;;;;;;13.35;3.05;;;;;;;4.04;100.00;100520.41;5181402;28;20025;-76
2022/04/10 03:30:39;;;;;;;11.18;2.95;;;;;;;3.94;100.00;100525.69;5181423;28;20182;-76
2022/04/10 03:33:09;;;;;;;16.23;3.10;;;;;;;4.00;100.00;100529.06;5181345;28;20542;-76
2022/04/10 03:35:39;;;;;;;14.30;2.78;;;;;;;4.01;100.00;100532.50;5181538;28;20088;-76
2022/04/10 03:38:10;;;;;;;7.82;2.72;;;;;;;4.08;100.00;100534.13;5181193;28;20511;-76
2022/04/10 03:40:40;;;;;;;7.55;2.72;;;;;;;4.04;100.00;100527.28;5181129;28;20561;-76
2022/04/10 03:43:11;;;;;;;8.38;2.47;;;;;;;4.19;100.00;100530.59;5176774;28;20033;-76
2022/04/10 03:45:41;;;;;;;9.73;2.90;;;;;;;4.19;100.00;100533.19;5174739;28;20026;-76
2022/04/10 03:48:12;;;;;;;12.02;2.45;;;;;;;4.09;100.00;100538.47;5180624;28;20037;-77
2022/04/10 03:50:42;;;;;;;12.55;2.90;;;;;;;4.02;100.00;100540.25;5175088;28;20539;-77
2022/04/10 03:53:13;;;;;;;11.68;2.72;;;;;;;4.05;100.00;100541.94;5174725;28;20106;-76
2022/04/10 03:55:44;;;;;;;12.00;2.38;;;;;;;4.12;100.00;100535.84;5181166;28;20029;-76
2022/04/10 03:58:14;;;;;;;12.73;2.80;;;;;;;4.05;100.00;100534.16;5180247;28;20029;-77
2022/04/10 04:00:46;;;;;;;7.05;2.28;;;;;;;4.05;100.00;100544.50;5180618;28;20438;-76
2022/04/10 04:03:16;;;;;;;11.30;2.70;;;;;;;4.03;100.00;100536.78;5180811;28;20065;-77
2022/04/10 04:05:47;;;;;;;12.50;3.05;;;;;;;3.95;100.00;100543.75;5180765;28;20053;-77
2022/04/10 04:08:17;;;;;;;9.57;2.50;;;;;;;3.91;100.00;100536.03;5180702;28;20113;-76
2022/04/10 04:10:47;;;;;;;19.15;2.85;;;;;;;3.97;100.00;100552.34;5180218;28;20112;-76
2022/04/10 04:13:18;;;;;;;10.50;2.80;;;;;;;3.98;100.00;100561.81;5167390;28;20049;-77
2022/04/10 04:15:48;;;;;;;8.48;2.63;;;;;;;3.93;100.00;100561.00;5174233;28;20025;-76
2022/04/10 04:18:18;;;;;;;12.30;2.47;;;;;;;3.94;100.00;100556.69;5180204;28;20025;-76
2022/04/10 04:20:48;;;;;;;15.40;2.47;;;;;;;3.93;100.00;100561.00;5174173;28;20451;-77
2022/04/10 04:23:19;;;;;;;11.27;2.75;;;;;;;3.86;100.00;100574.88;5174175;28;20038;-76
2022/04/10 04:25:50;;;;;;;10.68;2.53;;;;;;;3.96;100.00;100576.47;5180797;28;20097;-77
2022/04/10 04:28:20;;;;;;;11.98;2.40;;;;;;;4.01;100.00;100582.50;5180503;28;20025;-77
2022/04/10 04:30:50;;;;;;;11.98;2.67;;;;;;;3.90;100.00;100586.00;5180280;28;20026;-76
2022/04/10 04:33:21;;;;;;;10.95;2.67;;;;;;;4.03;100.00;100593.66;5180784;28;20021;-77
2022/04/10 04:35:51;;;;;;;13.88;2.83;;;;;;;3.96;100.00;100593.72;5180474;28;20137;-77
2022/04/10 04:38:21;;;;;;;10.55;3.45;;;;;;;4.00;100.00;100603.16;5180255;28;20032;-77
2022/04/10 04:40:52;;;;;;;9.93;3.08;;;;;;;3.97;100.00;100604.03;5179764;28;20022;-77
2022/04/10 04:43:22;;;;;;;13.57;3.20;;;;;;;3.99;100.00;100611.78;5175045;28;20026;-77
2022/04/10 04:45:52;;;;;;;10.90;3.40;;;;;;;4.17;100.00;100611.63;5174005;28;20501;-76
2022/04/10 04:48:22;;;;;;;12.75;2.80;;;;;;;4.15;100.00;100619.38;5180222;28;20041;-76
2022/04/10 04:50:53;;;;;;;10.57;2.83;;;;;;;4.13;100.00;100621.13;5174153;28;20112;-76
2022/04/10 04:53:23;;;;;;;11.73;3.08;;;;;;;4.03;100.00;100627.28;5175054;28;20022;-76
2022/04/10 04:55:53;;;;;;;8.55;2.95;;;;;;;3.97;100.00;100637.66;5180491;28;20087;-77
2022/04/10 04:58:24;;;;;;;14.38;3.25;;;;;;;4.13;100.00;100638.41;5180104;28;20113;-76
2022/04/10 05:00:54;;;;;;;10.65;2.80;;;;;;;4.17;100.00;100635.78;5179843;28;20026;-76
2022/04/10 05:03:24;;;;;;;10.75;2.40;;;;;;;4.06;100.00;100639.31;5180125;28;20034;-76
2022/04/10 05:05:54;;;;;;;12.40;2.90;;;;;;;4.01;100.00;100641.94;5180055;28;20037;-76
2022/04/10 05:08:25;;;;;;;12.97;2.90;;;;;;;4.05;100.00;100637.59;5180005;28;20546;-76
2022/04/10 05:10:55;;;;;;;13.70;2.97;;;;;;;4.10;100.00;100652.19;5179230;28;20335;-76
2022/04/10 05:13:26;;;;;;;9.18;2.42;;;;;;;4.27;100.00;100652.91;5167840;28;20026;-77
2022/04/10 05:15:57;;;;;;;11.18;2.28;;;;;;;4.22;100.00;100654.69;5173153;28;20037;-76
2022/04/10 05:18:27;;;;;;;10.73;2.55;;;;;;;4.38;100.00;100658.84;5179751;28;20385;-76
2022/04/10 05:20:58;;;;;;;16.67;2.42;;;;;;;4.40;100.00;100662.28;5179244;28;20086;-76
2022/04/10 05:23:29;;;;;;;13.15;2.53;;;;;;;4.36;100.00;100660.59;5178923;28;20041;-76
2022/04/10 05:25:59;;;;;;;8.45;2.53;;;;;;;4.45;100.00;100664.81;5162094;28;20057;-76
2022/04/10 05:28:31;;;;;;;13.48;3.00;;;;;;;4.45;100.00;100672.59;5179377;28;20114;-77
2022/04/10 05:31:02;;;;;;;12.88;2.60;;;;;;;4.38;100.00;100666.63;5179497;28;20025;-77
2022/04/10 05:33:33;;;;;;;13.68;2.45;;;;;;;4.40;100.00;100671.75;5179959;28;20021;-77
2022/04/10 05:36:04;;;;;;;7.20;2.60;;;;;;;4.22;100.00;100672.78;5179750;28;20694;-76
2022/04/10 05:38:34;;;;;;;10.25;2.47;;;;;;;4.32;100.00;100678.75;5179629;28;20120;-76
2022/04/10 05:41:04;;;;;;;21.08;3.20;;;;;;;4.16;100.00;100683.16;5178801;28;20030;-77
2022/04/10 05:43:34;;;;;;;11.45;3.13;;;;;;;4.29;100.00;100689.97;5168638;28;20789;-76
2022/04/10 05:46:05;;;;;;;13.07;2.50;;;;;;;4.27;100.00;100691.69;5173020;28;20555;-76
2022/04/10 05:48:35;;;;;;;13.07;3.47;;;;;;;4.13;100.00;100703.03;5179472;28;20069;-77
2022/04/10 05:51:07;;;;;;;6.32;2.58;;;;;;;4.25;100.00;100702.91;5178874;28;20052;-77
2022/04/10 05:53:37;;;;;;;9.75;2.55;;;;;;;4.27;100.00;100702.03;5179798;28;20022;-77
2022/04/10 05:56:07;;;;;;;11.10;2.40;;;;;;;4.35;100.00;100697.69;5178530;28;20391;-76
2022/04/10 05:58:38;;;;;;;14.80;2.45;;;;;;;4.43;100.00;100698.47;5179583;28;20041;-77
2022/04/10 06:01:08;;;;;;;12.55;2.50;;;;;;;4.45;100.00;100706.22;5178920;28;20076;-77
2022/04/10 06:03:38;;;;;;;17.10;2.60;;;;;;;4.51;100.00;100716.50;5178625;28;20026;-76
2022/04/10 06:06:09;;;;;;;14.68;2.75;;;;;;;4.75;100.00;100722.31;5179297;28;20125;-76
2022/04/10 06:08:39;;;;;;;11.73;2.75;;;;;;;4.67;100.00;100716.34;5179285;28;20070;-77
2022/04/10 06:11:09;;;;;;;10.57;2.50;;;;;;;5.17;98.13;100713.22;5177992;28;20049;-77
2022/04/10 06:13:39;;;;;;;15.77;3.60;;;;;;;5.32;96.57;100723.41;5166115;28;20053;-77
2022/04/10 06:16:10;;;;;;;10.75;3.63;;;;;;;5.30;96.15;100720.81;5172572;28;20038;-77
2022/04/10 06:18:40;;;;;;;9.32;3.17;;;;;;;5.43;95.38;100725.00;5179640;28;20507;-77
2022/04/10 06:21:10;;;;;;;7.80;2.40;;;;;;;5.50;94.99;100724.03;5179503;28;20392;-77
2022/04/10 06:23:41;;;;;;;14.07;2.58;;;;;;;5.44;94.97;100726.69;5182986;28;20026;-77
2022/04/10 06:26:11;;;;;;;13.93;2.70;;;;;;;5.43;95.13;100730.16;5183237;28;20061;-77
2022/04/10 06:28:41;;;;;;;12.18;2.33;;;;;;;5.66;94.87;100730.72;5183416;28;20029;-77
2022/04/10 06:31:11;;;;;;;7.78;2.28;;;;;;;5.64;93.93;100730.75;5182804;28;20103;-77
2022/04/10 06:33:42;;;;;;;17.13;2.97;;;;;;;5.71;93.29;100726.34;5183341;28;20021;-77
2022/04/10 06:36:12;;;;;;;12.93;2.72;;;;;;;5.71;93.47;100739.31;5182759;28;20063;-77
2022/04/10 06:38:42;;;;;;;11.50;2.15;;;;;;;5.83;93.03;100737.44;5183025;28;20657;-77
2022/04/10 06:41:12;;;;;;;12.10;2.38;;;;;;;5.90;92.00;100738.22;5182348;28;20052;-77
2022/04/10 06:43:43;;;;;;;9.80;2.27;;;;;;;6.36;91.79;100734.03;5173865;28;20022;-77
2022/04/10 06:46:13;;;;;;;11.50;2.38;;;;;;;6.52;90.04;100722.50;5175958;28;20311;-77
2022/04/10 06:48:44;;;;;;;13.25;2.40;;;;;;;7.22;87.29;100727.25;5182165;28;20092;-77
2022/04/10 06:51:16;;;;;;;13.83;3.17;;;;;;;8.23;83.03;100732.88;5175835;28;20038;-78
2022/04/10 06:53:46;;;;;;;11.35;2.05;;;;;;;9.54;76.19;100718.06;5179737;28;20284;-78
2022/04/10 06:56:16;;;;;;;10.20;2.25;;;;;;;9.87;74.90;100719.66;5181637;28;20025;-78
2022/04/10 06:58:47;;;;;;;10.73;2.30;;;;;;;9.45;74.39;100723.53;5182114;28;20113;-78
2022/04/10 07:01:17;;;;;;;8.48;2.10;;;;;;;9.76;73.70;100724.34;5181664;28;20116;-77
2022/04/10 07:03:47;;;;;;;11.75;2.20;;;;;;;10.17;72.45;100726.59;5143022;28;20034;-78
2022/04/10 07:06:18;;;;;;;8.98;1.73;;;;;;;10.30;72.45;100731.34;5174859;28;20025;-78
2022/04/10 07:08:48;;;;;;;10.27;2.17;;;;;;;9.98;72.69;100728.03;5182480;28;20113;-77
2022/04/10 07:11:18;;;;;;;11.40;2.20;;;;;;;10.76;70.09;100741.16;5181908;28;20459;-78
2022/04/10 07:13:48;;;;;;;11.68;2.03;;;;;;;9.66;72.50;100739.41;5172697;28;20128;-78
2022/04/10 07:16:19;;;;;;;8.00;2.45;;;;;;;9.01;75.71;100751.72;5176357;28;20036;-77
2022/04/10 07:18:49;;;;;;;9.60;1.70;;;;;;;7.75;79.92;100760.84;5182389;28;20665;-77
2022/04/10 07:23:41;;;;;;;13.37;2.00;;;;;;;7.08;81.92;100756.97;5179115;28;20030;-77
2022/04/10 07:24:09;;;;;;;11.50;2.17;;;;;;;6.79;85.00;100756.63;5175349;28;20296;-77
2022/04/10 07:26:40;;;;;;;15.50;2.70;;;;;;;7.53;84.40;100769.94;5181216;28;20494;-77
2022/04/10 07:29:12;;;;;;;9.50;2.10;;;;;;;7.59;82.79;100754.22;5180291;28;20724;-77
2022/04/10 07:31:43;;;;;;;13.68;2.35;;;;;;;8.01;79.92;100757.66;5179634;28;20080;-77
2022/04/10 07:34:13;;;;;;;9.30;2.00;;;;;;;7.64;80.61;100751.50;5178964;28;20028;-77
2022/04/10 07:36:43;;;;;;;11.50;2.10;;;;;;;8.68;77.86;100748.25;5179396;28;20088;-77
2022/04/10 07:39:13;;;;;;;11.87;2.13;;;;;;;9.48;75.30;100749.53;5179752;28;20113;-77
2022/04/10 07:41:44;;;;;;;10.15;2.50;;;;;;;11.79;68.79;100733.03;5179792;28;20280;-77
2022/04/10 07:44:14;;;;;;;6.30;1.70;;;;;;;11.46;67.81;100736.88;5165807;28;20033;-77
2022/04/10 07:49:33;;;;;;;8.45;2.00;;;;;;;10.25;71.26;100745.47;5176231;28;20675;-77
2022/04/10 07:52:03;;;;;;;10.40;1.90;;;;;;;9.47;73.02;100755.66;5181240;28;20038;-77
2022/04/10 07:54:34;;;;;;;12.35;2.45;;;;;;;8.86;74.70;100763.41;5177914;28;20276;-77
2022/04/10 07:57:04;;;;;;;22.43;10.17;;;;;;;10.14;70.96;100765.84;5159848;28;20551;-77
2022/04/10 07:59:34;;;;;;;10.60;2.03;;;;;;;9.34;74.98;100762.09;5167233;28;20896;-77
2022/04/10 08:02:05;;;;;;;8.30;1.75;;;;;;;9.30;75.71;100765.69;5143524;28;20798;-77
2022/04/10 08:04:35;;;;;;;12.00;2.08;;;;;;;9.13;74.59;100775.72;5163068;28;20038;-77
2022/04/10 08:07:05;;;;;;;7.57;1.52;;;;;;;10.61;71.48;100775.63;5161610;28;20581;-77
2022/04/10 08:09:35;;;;;;;10.82;1.92;;;;;;;11.02;68.82;100763.78;5163825;28;20025;-77
2022/04/10 08:12:06;;;;;;;10.13;1.77;;;;;;;10.31;71.34;100776.63;5174802;28;20648;-77
2022/04/10 08:14:37;;;;;;;9.88;1.77;;;;;;;10.85;68.52;100795.75;5167974;28;20045;-77
2022/04/10 08:17:11;;;;;;;5.75;1.73;;;;;;;10.82;68.89;100781.03;5179090;28;20125;-77
2022/04/10 08:19:42;;;;;;;8.97;1.63;;;;;;;9.61;70.06;100795.22;5166789;28;20052;-77
2022/04/10 08:22:12;;;;;;;9.95;1.95;;;;;;;8.87;73.84;100801.59;5176886;28;20123;-77
2022/04/10 08:24:42;;;;;;;8.32;1.75;;;;;;;8.26;76.82;100801.38;5180079;28;20076;-77
2022/04/10 08:27:12;;;;;;;9.93;2.33;;;;;;;8.36;77.89;100800.25;5175649;28;20053;-77
2022/04/10 08:29:43;;;;;;;7.88;1.77;;;;;;;9.26;74.95;100795.34;5171680;28;20124;-77
2022/04/10 08:32:13;;;;;;;6.75;1.58;;;;;;;8.73;76.51;100803.69;5168381;28;20033;-77
2022/04/10 08:34:43;;;;;;;10.18;1.90;;;;;;;8.36;76.06;100802.84;5174824;28;20525;-77
2022/04/10 08:37:14;;;;;;;14.02;1.80;;;;;;;8.54;77.24;100807.63;5176315;28;20049;-77
2022/04/10 08:39:44;;;;;;;9.90;1.90;;;;;;;10.13;72.51;100788.50;5154385;28;20500;-77
2022/04/10 08:42:15;;;;;;;8.45;1.80;;;;;;;9.84;71.18;100795.44;5175398;28;20045;-76
2022/04/10 08:44:46;;;;;;;9.65;1.90;;;;;;;10.03;71.54;100799.25;5169207;28;20086;-76
2022/04/10 08:47:20;;;;;;;9.00;1.35;;;;;;;8.96;72.94;100804.00;5166505;28;20504;-77
2022/04/10 08:49:54;;;;;;;6.97;1.60;;;;;;;8.87;75.22;100808.56;5170478;28;20395;-77
2022/04/10 08:52:24;;;;;;;6.95;1.75;;;;;;;9.06;75.08;100810.66;5169164;28;20068;-77
2022/04/10 08:54:55;;;;;;;8.00;1.83;;;;;;;9.44;72.85;100813.09;5170630;28;20331;-77
2022/04/10 08:57:25;;;;;;;8.40;1.98;;;;;;;10.36;71.71;100806.06;5170358;28;20108;-77
2022/04/10 08:59:57;;;;;;;7.47;1.33;;;;;;;11.79;66.48;100789.81;5179239;28;20026;-77
2022/04/10 09:02:27;;;;;;;5.93;1.23;;;;;;;13.42;64.68;100786.56;5166874;28;20377;-77
2022/04/10 09:04:57;;;;;;;9.27;1.65;;;;;;;14.67;58.93;100788.59;5166368;28;20084;-77
2022/04/10 09:07:28;;;;;;;8.18;1.70;;;;;;;12.61;61.89;100791.78;5177754;28;21291;-77
2022/04/10 09:09:59;;;;;;;7.25;1.35;;;;;;;11.94;64.65;100792.69;5171759;28;20031;-77
2022/04/10 09:12:29;;;;;;;5.43;1.20;;;;;;;10.30;67.65;100806.25;5166973;28;20511;-77
2022/04/10 09:15:03;;;;;;;9.32;1.23;;;;;;;9.62;69.91;100810.03;5164597;28;20080;-77
2022/04/10 09:17:33;;;;;;;7.32;1.30;;;;;;;8.77;72.40;100815.75;5176300;28;20079;-76
2022/04/10 09:20:04;;;;;;;7.47;1.42;;;;;;;8.65;73.44;100813.44;5168206;28;20062;-77
2022/04/10 09:22:38;;;;;;;5.25;2.08;;;;;;;8.32;75.57;100815.97;5171809;28;20045;-77
2022/04/10 09:25:13;;;;;;;5.82;1.92;;;;;;;8.55;74.47;100824.13;5167490;28;20033;-77
2022/04/10 09:27:48;;;;;;;12.23;2.67;;;;;;;8.42;72.36;100815.72;5171812;28;20143;-76
2022/04/10 09:30:21;;;;;;;6.05;1.30;;;;;;;8.34;72.91;100819.38;5167066;28;20081;-77
2022/04/10 09:32:52;;;;;;;9.00;1.80;;;;;;;8.34;74.12;100825.47;5176350;28;20104;-77
2022/04/10 09:35:24;;;;;;;4.97;1.50;;;;;;;8.12;75.59;100819.00;5179257;28;20419;-76
2022/04/10 09:37:57;;;;;;;10.07;2.70;;;;;;;8.31;75.92;100820.34;5169456;28;20033;-77
2022/04/10 09:40:35;;;;;;;7.88;2.55;;;;;;;8.43;76.18;100814.84;5171433;28;20021;-77
2022/04/10 09:43:10;;;;;;;7.25;2.40;;;;;;;8.44;74.82;100818.28;5171352;28;20038;-77
2022/04/10 09:45:43;;;;;;;8.23;1.40;;;;;;;8.21;74.68;100824.03;5172339;28;20026;-76
2022/04/10 09:48:29;;;;;;;6.97;1.33;;;;;;;7.84;76.88;100823.06;5177832;28;20029;-77
2022/04/10 09:51:02;;;;;;;10.55;1.48;;;;;;;7.42;82.09;100836.06;5169899;28;20021;-76
2022/04/10 09:53:33;;;;;;;6.07;1.60;;;;;;;7.31;84.58;100831.06;5178626;28;20032;-77
2022/04/10 09:56:05;;;;;;;5.07;1.20;;;;;;;7.22;86.30;100829.50;5179328;28;20028;-77
2022/04/10 09:58:36;;;;;;;9.25;1.52;;;;;;;6.99;86.53;100832.53;5180714;28;20269;-76
2022/04/10 10:01:10;;;;;;;9.68;1.60;;;;;;;7.09;87.40;100828.03;5182209;28;20021;-76
2022/04/10 10:03:41;;;;;;;13.57;1.75;;;;;;;7.03;87.26;100830.69;5181069;28;20028;-76
2022/04/10 10:06:12;;;;;;;7.75;1.80;;;;;;;7.41;87.81;100823.94;5174420;28;20494;-76
2022/04/10 10:08:43;;;;;;;10.32;1.98;;;;;;;7.52;85.50;100820.25;5163108;28;20132;-76
2022/04/10 10:11:14;;;;;;;8.65;1.70;;;;;;;7.91;84.15;100813.38;5167655;28;20037;-77
2022/04/10 10:13:46;;;;;;;8.60;3.10;;;;;;;8.28;82.88;100811.72;5164529;28;20026;-77
2022/04/10 10:16:17;;;;;;;6.57;1.90;;;;;;;8.58;80.75;100798.84;5175663;28;20053;-77
2022/04/10 10:18:48;;;;;;;5.82;1.50;;;;;;;8.50;78.54;100805.13;5174497;28;20030;-77
2022/04/10 10:21:19;;;;;;;6.47;1.73;;;;;;;7.89;81.10;100821.22;5171521;28;20514;-76
2022/04/10 10:23:53;;;;;;;11.70;2.95;;;;;;;7.41;83.73;100827.41;5176730;28;20029;-77
2022/04/10 10:26:48;;;;;;;9.45;1.77;;;;;;;7.60;85.46;100817.50;5177092;28;20037;-76
2022/04/10 10:29:36;;;;;;;8.75;1.60;;;;;;;8.08;86.20;100816.47;5171276;28;20036;-76
2022/04/10 10:32:14;;;;;;;7.15;1.92;;;;;;;8.48;85.14;100814.72;5179962;28;20069;-77
2022/04/10 10:34:50;;;;;;;5.32;1.42;;;;;;;8.82;83.37;100813.03;5179097;28;20025;-77
2022/04/10 10:37:28;;;;;;;;;;;;;;;9.20;83.19;100817.25;5150945;28;20729;-77
2022/04/10 10:39:59;;;;;;;3.15;1.15;;;;;;;9.41;82.12;100808.84;5157618;28;20191;-77
2022/04/10 10:42:39;;;;;;;6.10;1.60;;;;;;;9.25;81.40;100817.09;5145380;28;20037;-77
2022/04/10 10:45:09;;;;;;;3.63;1.30;;;;;;;9.17;79.48;100806.03;5148897;28;20232;-77
2022/04/10 10:47:39;;;;;;;6.75;2.00;;;;;;;9.09;78.55;100802.75;5152560;28;20475;-77
2022/04/10 10:50:26;;;;;;;5.65;1.58;;;;;;;9.31;76.42;100801.31;5153649;28;20034;-77
2022/04/10 10:53:06;;;;;;;13.00;4.10;;;;;;;8.72;81.35;100820.22;5158589;28;20038;-77
2022/04/10 10:55:44;;;;;;;6.15;2.90;;;;;;;8.44;83.07;100820.91;5157945;28;20134;-77
2022/04/10 10:58:16;;;;;;;6.32;1.65;;;;;;;8.81;83.67;100812.19;5158669;28;20030;-77
2022/04/10 11:00:52;;;;;;;7.13;2.65;;;;;;;9.14;79.46;100800.91;5144932;28;20038;-77
2022/04/10 11:03:22;;;;;;;9.70;2.08;;;;;;;9.28;76.77;100810.06;5154727;28;20035;-77
2022/04/10 11:05:52;;;;;;;9.27;2.10;;;;;;;9.18;74.68;100815.56;5154138;28;20106;-77
2022/04/10 11:08:37;;;;;;;5.03;1.65;;;;;;;9.19;71.06;100809.44;5162839;28;20045;-77
2022/04/10 11:11:07;;;;;;;7.88;1.88;;;;;;;9.36;70.81;100807.25;5158354;28;20079;-77
2022/04/10 11:13:41;;;;;;;9.02;2.90;;;;;;;8.98;69.72;100815.22;5154190;28;20022;-77
2022/04/10 11:16:13;;;;;;;4.78;1.80;;;;;;;8.73;71.51;100824.53;5163333;28;20189;-77
2022/04/10 11:18:50;;;;;;;5.70;1.52;;;;;;;8.96;70.30;100816.16;5166340;28;20632;-77
2022/04/10 11:21:21;;;;;;;9.65;1.70;;;;;;;9.01;70.88;100832.53;5169127;28;20046;-77
2022/04/10 11:23:51;;;;;;;6.97;2.63;;;;;;;9.16;71.44;100825.19;5173821;28;20102;-77
2022/04/10 11:26:27;;;;;;;4.32;1.20;;;;;;;9.23;70.90;100817.16;5174188;28;20057;-77
2022/04/10 11:29:00;;;;;;;8.48;2.13;;;;;;;9.29;70.97;100810.94;5161256;28;20064;-77
2022/04/10 11:31:37;;;;;;;6.30;1.48;;;;;;;9.38;69.68;100816.75;5170608;28;20239;-77
2022/04/10 11:34:14;;;;;;;7.75;1.40;;;;;;;9.23;70.12;100816.28;5156429;28;20057;-77
2022/04/10 11:36:48;;;;;;;5.57;1.20;;;;;;;9.57;69.18;100814.50;5174508;28;20030;-77
2022/04/10 11:39:36;;;;;;;6.05;1.23;;;;;;;9.52;69.63;100811.16;5169546;28;20068;-77
2022/04/10 11:42:08;;;;;;;7.90;2.10;;;;;;;9.41;68.97;100810.59;5164848;28;20041;-77
2022/04/10 11:44:40;;;;;;;6.82;1.92;;;;;;;9.63;68.40;100812.56;5168906;28;20038;-77
2022/04/10 11:47:11;;;;;;;2.90;1.02;;;;;;;9.85;68.38;100811.06;5163484;28;22946;-77